sensor_id;sensor_type;location;lat;lon;timestamp;P1;durP1;ratioP1;P2;durP2;ratioP2
48911;SDS011;34722;52.108;5.044;2023-04-23T06:19:11;25.58;;;20.27;;
48911;SDS011;34722;52.108;5.044;2023-04-23T06:43:10;20.60;;;17.20;;
48911;SDS011;34722;52.108;5.044;2023-04-23T06:45:45;17.48;;;15.52;;
48911;SDS011;34722;52.108;5.044;2023-04-23T06:48:25;18.25;;;16.35;;
48911;SDS011;34722;52.108;5.044;2023-04-23T06:50:51;18.95;;;16.95;;
48911;SDS011;34722;52.108;5.044;2023-04-23T06:53:20;19.20;;;17.17;;
48911;SDS011;34722;52.108;5.044;2023-04-23T06:55:54;20.52;;;16.73;;
48911;SDS011;34722;52.108;5.044;2023-04-23T06:58:23;18.92;;;16.17;;
48911;SDS011;34722;52.108;5.044;2023-04-23T07:01:09;18.17;;;16.20;;
48911;SDS011;34722;52.108;5.044;2023-04-23T07:03:41;17.40;;;15.63;;
48911;SDS011;34722;52.108;5.044;2023-04-23T07:06:28;17.15;;;15.40;;
48911;SDS011;34722;52.108;5.044;2023-04-23T07:09:20;16.80;;;15.07;;
48911;SDS011;34722;52.108;5.044;2023-04-23T07:11:47;16.17;;;14.50;;
48911;SDS011;34722;52.108;5.044;2023-04-23T07:14:12;15.25;;;13.65;;
48911;SDS011;34722;52.108;5.044;2023-04-23T07:16:42;14.23;;;12.80;;
48911;SDS011;34722;52.108;5.044;2023-04-23T07:19:07;14.88;;;13.35;;
48911;SDS011;34722;52.108;5.044;2023-04-23T07:21:33;14.93;;;13.30;;
48911;SDS011;34722;52.108;5.044;2023-04-23T07:24:02;13.98;;;12.52;;
48911;SDS011;34722;52.108;5.044;2023-04-23T07:26:33;14.95;;;12.40;;
48911;SDS011;34722;52.108;5.044;2023-04-23T07:29:00;15.63;;;13.88;;
48911;SDS011;34722;52.108;5.044;2023-04-23T07:31:26;14.43;;;12.98;;
48911;SDS011;34722;52.108;5.044;2023-04-23T07:33:52;20.70;;;13.10;;
48911;SDS011;34722;52.108;5.044;2023-04-23T07:36:22;14.05;;;12.52;;
48911;SDS011;34722;52.108;5.044;2023-04-23T07:38:51;13.30;;;11.85;;
48911;SDS011;34722;52.108;5.044;2023-04-23T07:41:17;15.50;;;12.27;;
48911;SDS011;34722;52.108;5.044;2023-04-23T07:43:46;13.55;;;12.07;;
48911;SDS011;34722;52.108;5.044;2023-04-23T07:46:46;16.55;;;12.07;;
48911;SDS011;34722;52.108;5.044;2023-04-23T07:49:28;14.00;;;12.32;;
48911;SDS011;34722;52.108;5.044;2023-04-23T07:51:55;12.48;;;11.18;;
48911;SDS011;34722;52.108;5.044;2023-04-23T07:54:20;13.80;;;11.25;;
48911;SDS011;34722;52.108;5.044;2023-04-23T07:56:56;15.13;;;10.90;;
48911;SDS011;34722;52.108;5.044;2023-04-23T07:59:21;12.40;;;10.57;;
48911;SDS011;34722;52.108;5.044;2023-04-23T08:01:50;11.85;;;10.15;;
48911;SDS011;34722;52.108;5.044;2023-04-23T08:04:16;16.70;;;10.93;;
48911;SDS011;34722;52.108;5.044;2023-04-23T08:06:42;17.10;;;9.70;;
48911;SDS011;34722;52.108;5.044;2023-04-23T08:09:08;12.63;;;9.90;;
48911;SDS011;34722;52.108;5.044;2023-04-23T08:11:34;12.63;;;9.70;;
48911;SDS011;34722;52.108;5.044;2023-04-23T08:13:59;12.43;;;9.70;;
48911;SDS011;34722;52.108;5.044;2023-04-23T08:16:26;13.45;;;10.00;;
48911;SDS011;34722;52.108;5.044;2023-04-23T08:18:52;11.30;;;8.90;;
48911;SDS011;34722;52.108;5.044;2023-04-23T08:21:17;11.05;;;8.55;;
48911;SDS011;34722;52.108;5.044;2023-04-23T08:23:44;11.48;;;8.68;;
48911;SDS011;34722;52.108;5.044;2023-04-23T08:26:09;10.77;;;8.85;;
48911;SDS011;34722;52.108;5.044;2023-04-23T08:28:35;12.75;;;8.95;;
48911;SDS011;34722;52.108;5.044;2023-04-23T08:31:03;11.77;;;8.15;;
48911;SDS011;34722;52.108;5.044;2023-04-23T08:33:30;9.82;;;7.93;;
48911;SDS011;34722;52.108;5.044;2023-04-23T08:35:55;10.05;;;7.30;;
48911;SDS011;34722;52.108;5.044;2023-04-23T08:38:21;11.70;;;8.27;;
48911;SDS011;34722;52.108;5.044;2023-04-23T08:41:10;9.88;;;7.80;;
48911;SDS011;34722;52.108;5.044;2023-04-23T08:46:48;17.48;;;9.18;;
48911;SDS011;34722;52.108;5.044;2023-04-23T08:55:38;12.13;;;6.75;;
48911;SDS011;34722;52.108;5.044;2023-04-23T09:00:58;13.50;;;8.50;;
48911;SDS011;34722;52.108;5.044;2023-04-23T09:21:30;14.27;;;7.05;;
48911;SDS011;34722;52.108;5.044;2023-04-23T09:23:56;13.43;;;7.32;;
48911;SDS011;34722;52.108;5.044;2023-04-23T09:26:21;16.92;;;8.23;;
48911;SDS011;34722;52.108;5.044;2023-04-23T09:28:48;12.25;;;6.80;;
48911;SDS011;34722;52.108;5.044;2023-04-23T09:31:23;14.82;;;7.20;;
48911;SDS011;34722;52.108;5.044;2023-04-23T09:33:54;13.43;;;7.00;;
48911;SDS011;34722;52.108;5.044;2023-04-23T09:36:22;10.02;;;5.57;;
48911;SDS011;34722;52.108;5.044;2023-04-23T09:38:49;10.13;;;6.10;;
48911;SDS011;34722;52.108;5.044;2023-04-23T09:41:24;9.77;;;5.97;;
48911;SDS011;34722;52.108;5.044;2023-04-23T09:44:00;13.27;;;5.63;;
48911;SDS011;34722;52.108;5.044;2023-04-23T09:46:37;13.38;;;7.43;;
48911;SDS011;34722;52.108;5.044;2023-04-23T09:49:05;14.63;;;5.95;;
48911;SDS011;34722;52.108;5.044;2023-04-23T09:51:42;13.60;;;5.72;;
48911;SDS011;34722;52.108;5.044;2023-04-23T09:54:20;9.68;;;5.18;;
48911;SDS011;34722;52.108;5.044;2023-04-23T09:59:29;7.72;;;5.32;;
48911;SDS011;34722;52.108;5.044;2023-04-23T10:01:55;10.45;;;5.90;;
48911;SDS011;34722;52.108;5.044;2023-04-23T10:04:25;10.05;;;4.90;;
48911;SDS011;34722;52.108;5.044;2023-04-23T10:06:55;10.10;;;4.82;;
48911;SDS011;34722;52.108;5.044;2023-04-23T10:09:22;12.80;;;5.47;;
48911;SDS011;34722;52.108;5.044;2023-04-23T10:11:54;12.30;;;5.28;;
48911;SDS011;34722;52.108;5.044;2023-04-23T10:14:38;11.82;;;5.40;;
48911;SDS011;34722;52.108;5.044;2023-04-23T10:19:33;11.57;;;4.22;;
48911;SDS011;34722;52.108;5.044;2023-04-23T10:22:10;13.55;;;4.85;;
48911;SDS011;34722;52.108;5.044;2023-04-23T10:24:40;11.70;;;4.95;;
48911;SDS011;34722;52.108;5.044;2023-04-23T10:27:19;10.95;;;4.82;;
48911;SDS011;34722;52.108;5.044;2023-04-23T10:29:47;11.45;;;4.00;;
48911;SDS011;34722;52.108;5.044;2023-04-23T10:34:58;14.15;;;4.65;;
48911;SDS011;34722;52.108;5.044;2023-04-23T10:37:26;24.20;;;12.35;;
48911;SDS011;34722;52.108;5.044;2023-04-23T10:39:54;30.45;;;17.92;;
48911;SDS011;34722;52.108;5.044;2023-04-23T10:42:23;19.20;;;13.35;;
48911;SDS011;34722;52.108;5.044;2023-04-23T10:44:52;11.45;;;3.22;;
48911;SDS011;34722;52.108;5.044;2023-04-23T10:49:48;8.63;;;3.05;;
48911;SDS011;34722;52.108;5.044;2023-04-23T10:52:16;9.52;;;3.58;;
48911;SDS011;34722;52.108;5.044;2023-04-23T10:55:05;11.82;;;3.25;;
48911;SDS011;34722;52.108;5.044;2023-04-23T11:00:50;9.30;;;3.10;;
48911;SDS011;34722;52.108;5.044;2023-04-23T11:06:04;7.95;;;3.42;;
48911;SDS011;34722;52.108;5.044;2023-04-23T11:08:31;8.68;;;3.50;;
48911;SDS011;34722;52.108;5.044;2023-04-23T11:10:59;8.18;;;3.25;;
48911;SDS011;34722;52.108;5.044;2023-04-23T11:24:30;9.13;;;3.30;;
48911;SDS011;34722;52.108;5.044;2023-04-23T11:26:58;8.48;;;3.03;;
48911;SDS011;34722;52.108;5.044;2023-04-23T11:29:26;9.68;;;3.00;;
48911;SDS011;34722;52.108;5.044;2023-04-23T11:31:57;8.38;;;2.90;;
48911;SDS011;34722;52.108;5.044;2023-04-23T11:34:24;12.57;;;3.63;;
48911;SDS011;34722;52.108;5.044;2023-04-23T11:36:51;9.18;;;3.05;;
48911;SDS011;34722;52.108;5.044;2023-04-23T11:39:18;8.25;;;3.30;;
48911;SDS011;34722;52.108;5.044;2023-04-23T11:41:45;8.52;;;2.78;;
48911;SDS011;34722;52.108;5.044;2023-04-23T11:44:12;7.10;;;2.25;;
48911;SDS011;34722;52.108;5.044;2023-04-23T11:46:38;10.25;;;3.20;;
48911;SDS011;34722;52.108;5.044;2023-04-23T11:49:04;4.40;;;2.28;;
48911;SDS011;34722;52.108;5.044;2023-04-23T11:51:30;6.93;;;2.67;;
48911;SDS011;34722;52.108;5.044;2023-04-23T11:54:03;9.07;;;4.22;;
48911;SDS011;34722;52.108;5.044;2023-04-23T11:56:39;10.00;;;2.40;;
48911;SDS011;34722;52.108;5.044;2023-04-23T11:59:13;7.82;;;3.10;;
48911;SDS011;34722;52.108;5.044;2023-04-23T12:01:39;9.60;;;2.80;;
48911;SDS011;34722;52.108;5.044;2023-04-23T12:04:10;10.20;;;3.03;;
48911;SDS011;34722;52.108;5.044;2023-04-23T12:06:37;9.68;;;3.25;;
48911;SDS011;34722;52.108;5.044;2023-04-23T12:09:04;10.35;;;2.88;;
48911;SDS011;34722;52.108;5.044;2023-04-23T12:11:30;8.20;;;3.00;;
48911;SDS011;34722;52.108;5.044;2023-04-23T12:13:58;7.15;;;2.83;;
48911;SDS011;34722;52.108;5.044;2023-04-23T12:16:37;9.55;;;2.83;;
48911;SDS011;34722;52.108;5.044;2023-04-23T12:19:13;8.45;;;2.83;;
48911;SDS011;34722;52.108;5.044;2023-04-23T12:21:51;6.88;;;2.70;;
48911;SDS011;34722;52.108;5.044;2023-04-23T12:24:19;4.95;;;2.45;;
48911;SDS011;34722;52.108;5.044;2023-04-23T13:11:38;6.97;;;2.55;;
48911;SDS011;34722;52.108;5.044;2023-04-23T13:14:24;7.45;;;3.13;;
48911;SDS011;34722;52.108;5.044;2023-04-23T13:16:51;4.75;;;2.30;;
48911;SDS011;34722;52.108;5.044;2023-04-23T13:19:17;5.90;;;2.40;;
48911;SDS011;34722;52.108;5.044;2023-04-23T13:21:43;8.05;;;2.20;;
48911;SDS011;34722;52.108;5.044;2023-04-23T13:24:09;6.78;;;2.60;;
48911;SDS011;34722;52.108;5.044;2023-04-23T13:26:35;8.05;;;2.38;;
48911;SDS011;34722;52.108;5.044;2023-04-23T13:29:10;5.25;;;2.17;;
48911;SDS011;34722;52.108;5.044;2023-04-23T13:31:36;10.10;;;3.30;;
48911;SDS011;34722;52.108;5.044;2023-04-23T13:34:02;8.95;;;2.58;;
48911;SDS011;34722;52.108;5.044;2023-04-23T13:36:31;4.90;;;2.45;;
48911;SDS011;34722;52.108;5.044;2023-04-23T13:38:57;8.00;;;2.42;;
48911;SDS011;34722;52.108;5.044;2023-04-23T13:41:23;6.72;;;3.05;;
48911;SDS011;34722;52.108;5.044;2023-04-23T14:01:58;10.05;;;3.25;;
48911;SDS011;34722;52.108;5.044;2023-04-23T14:04:23;8.85;;;3.35;;
48911;SDS011;34722;52.108;5.044;2023-04-23T14:06:50;9.13;;;3.92;;
48911;SDS011;34722;52.108;5.044;2023-04-23T14:09:16;4.25;;;2.47;;
48911;SDS011;34722;52.108;5.044;2023-04-23T14:11:43;7.22;;;2.50;;
48911;SDS011;34722;52.108;5.044;2023-04-23T14:14:11;10.02;;;2.83;;
48911;SDS011;34722;52.108;5.044;2023-04-23T14:16:53;10.32;;;2.85;;
48911;SDS011;34722;52.108;5.044;2023-04-23T14:19:19;8.45;;;2.88;;
48911;SDS011;34722;52.108;5.044;2023-04-23T14:21:45;7.65;;;4.10;;
48911;SDS011;34722;52.108;5.044;2023-04-23T14:26:58;9.52;;;3.13;;
48911;SDS011;34722;52.108;5.044;2023-04-23T14:29:39;8.07;;;2.75;;
48911;SDS011;34722;52.108;5.044;2023-04-23T14:32:10;7.47;;;3.17;;
48911;SDS011;34722;52.108;5.044;2023-04-23T14:34:36;5.57;;;2.83;;
48911;SDS011;34722;52.108;5.044;2023-04-23T14:37:05;6.47;;;2.70;;
48911;SDS011;34722;52.108;5.044;2023-04-23T14:39:32;5.70;;;3.10;;
48911;SDS011;34722;52.108;5.044;2023-04-23T14:41:58;7.25;;;3.60;;
48911;SDS011;34722;52.108;5.044;2023-04-23T14:44:25;11.90;;;3.42;;
48911;SDS011;34722;52.108;5.044;2023-04-23T14:46:51;8.18;;;3.33;;
48911;SDS011;34722;52.108;5.044;2023-04-23T14:49:20;8.93;;;4.00;;
48911;SDS011;34722;52.108;5.044;2023-04-23T14:51:46;10.32;;;3.65;;
48911;SDS011;34722;52.108;5.044;2023-04-23T14:54:14;12.90;;;3.92;;
48911;SDS011;34722;52.108;5.044;2023-04-23T14:56:41;8.95;;;4.07;;
48911;SDS011;34722;52.108;5.044;2023-04-23T14:59:10;15.93;;;5.55;;
48911;SDS011;34722;52.108;5.044;2023-04-23T15:01:35;12.05;;;4.10;;
48911;SDS011;34722;52.108;5.044;2023-04-23T15:04:02;14.90;;;4.85;;
48911;SDS011;34722;52.108;5.044;2023-04-23T15:06:28;11.45;;;3.22;;
48911;SDS011;34722;52.108;5.044;2023-04-23T15:08:57;9.35;;;3.50;;
48911;SDS011;34722;52.108;5.044;2023-04-23T15:11:23;10.10;;;3.00;;
48911;SDS011;34722;52.108;5.044;2023-04-23T15:13:56;10.15;;;4.63;;
48911;SDS011;34722;52.108;5.044;2023-04-23T15:16:45;12.32;;;4.03;;
48911;SDS011;34722;52.108;5.044;2023-04-23T15:19:11;12.38;;;4.03;;
48911;SDS011;34722;52.108;5.044;2023-04-23T15:21:37;15.05;;;6.22;;
48911;SDS011;34722;52.108;5.044;2023-04-23T15:24:03;14.55;;;4.80;;
48911;SDS011;34722;52.108;5.044;2023-04-23T15:26:29;19.35;;;4.75;;
48911;SDS011;34722;52.108;5.044;2023-04-23T15:29:05;16.60;;;5.78;;
48911;SDS011;34722;52.108;5.044;2023-04-23T15:31:34;14.98;;;6.15;;
48911;SDS011;34722;52.108;5.044;2023-04-23T15:34:00;11.80;;;5.10;;
48911;SDS011;34722;52.108;5.044;2023-04-23T15:36:33;15.38;;;5.65;;
48911;SDS011;34722;52.108;5.044;2023-04-23T15:38:59;14.68;;;6.18;;
48911;SDS011;34722;52.108;5.044;2023-04-23T15:41:25;9.63;;;4.97;;
48911;SDS011;34722;52.108;5.044;2023-04-23T15:43:51;12.20;;;4.93;;
48911;SDS011;34722;52.108;5.044;2023-04-23T15:46:18;17.30;;;5.80;;
48911;SDS011;34722;52.108;5.044;2023-04-23T15:48:43;21.90;;;5.40;;
48911;SDS011;34722;52.108;5.044;2023-04-23T15:51:09;15.27;;;5.38;;
48911;SDS011;34722;52.108;5.044;2023-04-23T15:53:35;15.02;;;6.10;;
48911;SDS011;34722;52.108;5.044;2023-04-23T15:56:01;16.83;;;4.00;;
48911;SDS011;34722;52.108;5.044;2023-04-23T15:58:27;16.25;;;5.78;;
48911;SDS011;34722;52.108;5.044;2023-04-23T16:00:55;12.75;;;5.22;;
48911;SDS011;34722;52.108;5.044;2023-04-23T16:03:21;13.80;;;4.93;;
48911;SDS011;34722;52.108;5.044;2023-04-23T16:05:47;11.25;;;4.97;;
48911;SDS011;34722;52.108;5.044;2023-04-23T16:08:14;19.23;;;5.90;;
48911;SDS011;34722;52.108;5.044;2023-04-23T16:10:41;13.80;;;5.78;;
48911;SDS011;34722;52.108;5.044;2023-04-23T16:13:07;16.33;;;5.35;;
48911;SDS011;34722;52.108;5.044;2023-04-23T16:15:33;19.08;;;5.50;;
48911;SDS011;34722;52.108;5.044;2023-04-23T16:17:59;9.98;;;4.53;;
48911;SDS011;34722;52.108;5.044;2023-04-23T16:20:25;12.32;;;4.72;;
48911;SDS011;34722;52.108;5.044;2023-04-23T16:22:55;13.68;;;5.18;;
48911;SDS011;34722;52.108;5.044;2023-04-23T16:25:21;14.00;;;4.10;;
48911;SDS011;34722;52.108;5.044;2023-04-23T16:27:47;12.45;;;4.47;;
48911;SDS011;34722;52.108;5.044;2023-04-23T16:30:14;15.77;;;4.97;;
48911;SDS011;34722;52.108;5.044;2023-04-23T16:32:40;13.00;;;4.70;;
48911;SDS011;34722;52.108;5.044;2023-04-23T16:35:06;9.27;;;4.20;;
48911;SDS011;34722;52.108;5.044;2023-04-23T16:37:33;11.73;;;4.90;;
48911;SDS011;34722;52.108;5.044;2023-04-23T16:39:59;9.52;;;4.53;;
48911;SDS011;34722;52.108;5.044;2023-04-23T16:45:38;10.20;;;3.80;;
48911;SDS011;34722;52.108;5.044;2023-04-23T16:48:06;8.55;;;2.95;;
48911;SDS011;34722;52.108;5.044;2023-04-23T16:50:35;11.45;;;3.58;;
48911;SDS011;34722;52.108;5.044;2023-04-23T16:53:01;3.75;;;2.97;;
48911;SDS011;34722;52.108;5.044;2023-04-23T16:55:27;9.88;;;3.65;;
48911;SDS011;34722;52.108;5.044;2023-04-23T16:57:53;8.60;;;3.17;;
48911;SDS011;34722;52.108;5.044;2023-04-23T17:00:22;10.85;;;3.85;;
48911;SDS011;34722;52.108;5.044;2023-04-23T18:14:24;7.65;;;3.88;;
48911;SDS011;34722;52.108;5.044;2023-04-23T18:16:51;7.80;;;4.43;;
48911;SDS011;34722;52.108;5.044;2023-04-23T18:19:18;8.70;;;4.38;;
48911;SDS011;34722;52.108;5.044;2023-04-23T18:21:47;10.85;;;4.80;;
48911;SDS011;34722;52.108;5.044;2023-04-23T18:24:14;7.95;;;5.18;;
48911;SDS011;34722;52.108;5.044;2023-04-23T18:26:42;9.18;;;4.05;;
48911;SDS011;34722;52.108;5.044;2023-04-23T18:29:07;16.27;;;4.22;;
48911;SDS011;34722;52.108;5.044;2023-04-23T18:31:36;7.88;;;4.20;;
48911;SDS011;34722;52.108;5.044;2023-04-23T18:34:02;11.38;;;5.47;;
48911;SDS011;34722;52.108;5.044;2023-04-23T18:36:37;10.55;;;4.97;;
48911;SDS011;34722;52.108;5.044;2023-04-23T18:39:06;9.00;;;4.82;;
48911;SDS011;34722;52.108;5.044;2023-04-23T18:41:32;13.57;;;5.43;;
48911;SDS011;34722;52.108;5.044;2023-04-23T18:43:59;10.07;;;5.15;;
48911;SDS011;34722;52.108;5.044;2023-04-23T18:46:26;10.70;;;4.68;;
48911;SDS011;34722;52.108;5.044;2023-04-23T18:51:59;8.63;;;5.13;;
48911;SDS011;34722;52.108;5.044;2023-04-23T18:54:26;9.32;;;5.22;;
48911;SDS011;34722;52.108;5.044;2023-04-23T18:56:53;14.05;;;6.90;;
48911;SDS011;34722;52.108;5.044;2023-04-23T18:59:21;12.38;;;5.30;;
48911;SDS011;34722;52.108;5.044;2023-04-23T19:01:47;12.30;;;5.82;;
48911;SDS011;34722;52.108;5.044;2023-04-23T19:04:13;9.27;;;5.50;;
48911;SDS011;34722;52.108;5.044;2023-04-23T19:06:39;8.23;;;6.22;;
48911;SDS011;34722;52.108;5.044;2023-04-23T19:09:05;11.15;;;6.07;;
48911;SDS011;34722;52.108;5.044;2023-04-23T19:11:31;9.90;;;5.80;;
48911;SDS011;34722;52.108;5.044;2023-04-23T19:14:01;11.13;;;6.78;;
48911;SDS011;34722;52.108;5.044;2023-04-23T19:16:26;11.38;;;6.75;;
48911;SDS011;34722;52.108;5.044;2023-04-23T19:19:10;14.23;;;6.88;;
48911;SDS011;34722;52.108;5.044;2023-04-23T19:21:36;8.82;;;6.85;;
48911;SDS011;34722;52.108;5.044;2023-04-23T19:24:02;19.67;;;9.55;;
48911;SDS011;34722;52.108;5.044;2023-04-23T19:26:28;13.38;;;6.97;;
48911;SDS011;34722;52.108;5.044;2023-04-23T19:28:54;13.02;;;6.88;;
48911;SDS011;34722;52.108;5.044;2023-04-23T19:31:20;15.30;;;7.18;;
48911;SDS011;34722;52.108;5.044;2023-04-23T19:33:48;15.05;;;7.30;;
48911;SDS011;34722;52.108;5.044;2023-04-23T19:36:14;14.20;;;8.02;;
48911;SDS011;34722;52.108;5.044;2023-04-23T19:38:40;12.48;;;7.80;;
48911;SDS011;34722;52.108;5.044;2023-04-23T19:41:06;16.25;;;8.73;;
48911;SDS011;34722;52.108;5.044;2023-04-23T19:43:32;13.52;;;7.53;;
48911;SDS011;34722;52.108;5.044;2023-04-23T19:45:58;17.92;;;8.25;;
48911;SDS011;34722;52.108;5.044;2023-04-23T19:48:24;16.95;;;7.95;;
48911;SDS011;34722;52.108;5.044;2023-04-23T19:50:49;16.35;;;8.55;;
48911;SDS011;34722;52.108;5.044;2023-04-23T19:53:15;16.20;;;8.55;;
48911;SDS011;34722;52.108;5.044;2023-04-23T19:55:42;12.88;;;8.52;;
48911;SDS011;34722;52.108;5.044;2023-04-23T19:58:07;17.73;;;10.15;;
48911;SDS011;34722;52.108;5.044;2023-04-23T20:00:33;13.35;;;8.05;;
48911;SDS011;34722;52.108;5.044;2023-04-23T20:03:06;19.40;;;9.18;;
48911;SDS011;34722;52.108;5.044;2023-04-23T20:05:32;16.02;;;8.93;;
48911;SDS011;34722;52.108;5.044;2023-04-23T20:07:58;13.75;;;9.05;;
48911;SDS011;34722;52.108;5.044;2023-04-23T20:10:25;14.90;;;9.60;;
48911;SDS011;34722;52.108;5.044;2023-04-23T20:12:54;15.30;;;9.05;;
48911;SDS011;34722;52.108;5.044;2023-04-23T20:15:21;18.65;;;10.75;;
48911;SDS011;34722;52.108;5.044;2023-04-23T20:17:49;17.15;;;9.20;;
48911;SDS011;34722;52.108;5.044;2023-04-23T20:20:15;14.60;;;9.80;;
48911;SDS011;34722;52.108;5.044;2023-04-23T20:22:42;15.50;;;10.90;;
48911;SDS011;34722;52.108;5.044;2023-04-23T20:25:08;10.48;;;7.18;;
48911;SDS011;34722;52.108;5.044;2023-04-23T20:27:35;11.75;;;8.07;;
48911;SDS011;34722;52.108;5.044;2023-04-23T20:30:03;7.85;;;5.57;;
48911;SDS011;34722;52.108;5.044;2023-04-23T20:32:31;9.27;;;4.03;;
48911;SDS011;34722;52.108;5.044;2023-04-23T20:35:08;4.13;;;3.53;;
48911;SDS011;34722;52.108;5.044;2023-04-23T21:10:43;4.20;;;1.70;;
48911;SDS011;34722;52.108;5.044;2023-04-23T21:15:59;2.20;;;1.52;;
48911;SDS011;34722;52.108;5.044;2023-04-23T21:18:29;2.67;;;1.98;;
48911;SDS011;34722;52.108;5.044;2023-04-23T21:20:55;1.90;;;1.80;;
48911;SDS011;34722;52.108;5.044;2023-04-23T21:23:20;3.17;;;1.73;;
48911;SDS011;34722;52.108;5.044;2023-04-23T21:25:46;1.92;;;1.50;;
48911;SDS011;34722;52.108;5.044;2023-04-23T21:28:12;3.03;;;1.60;;
48911;SDS011;34722;52.108;5.044;2023-04-23T21:30:43;1.65;;;1.40;;
48911;SDS011;34722;52.108;5.044;2023-04-23T21:33:10;2.35;;;1.95;;
48911;SDS011;34722;52.108;5.044;2023-04-23T21:35:37;2.05;;;1.85;;
48911;SDS011;34722;52.108;5.044;2023-04-23T21:38:02;4.38;;;1.90;;
48911;SDS011;34722;52.108;5.044;2023-04-23T21:43:54;2.88;;;1.90;;
